createdAt,value
2019-05-21T00:00:19.068Z,1071.39
2019-05-21T00:04:47.823Z,1071.54
2019-05-21T00:05:47.161Z,1071.52
2019-05-21T00:06:47.042Z,1071.61
2019-05-21T00:07:47.042Z,1071.69
2019-05-21T00:08:47.057Z,1071.92
2019-05-21T00:09:47.061Z,1071.77
2019-05-21T00:10:47.044Z,1071.78
2019-05-21T00:11:47.058Z,1071.73
2019-05-21T00:12:47.058Z,1071.92
2019-05-21T00:13:47.065Z,1071.95
2019-05-21T00:14:47.074Z,1071.81
2019-05-21T00:15:47.072Z,1071.86
2019-05-21T00:16:47.060Z,1072.04
2019-05-21T00:17:47.075Z,1071.88
2019-05-21T00:18:47.094Z,1071.85
2019-05-21T00:19:47.090Z,1071.9
2019-05-21T00:20:47.087Z,1071.87
2019-05-21T00:21:47.093Z,1071.94
2019-05-21T00:22:47.099Z,1071.96
2019-05-21T00:23:47.067Z,1071.8
2019-05-21T00:24:47.140Z,1071.88
2019-05-21T00:25:47.081Z,1071.51
2019-05-21T00:26:47.093Z,1071.68
2019-05-21T00:27:47.075Z,1071.54
2019-05-21T00:28:47.092Z,1071.65
2019-05-21T00:29:47.084Z,1071.35
2019-05-21T00:30:47.091Z,1071.32
2019-05-21T00:31:47.101Z,1071.04
2019-05-21T00:32:47.108Z,1071.28
2019-05-21T00:33:47.100Z,1070.68
2019-05-21T00:34:47.124Z,1071.09
2019-05-21T00:35:47.110Z,1071.03
2019-05-21T00:36:47.093Z,1071.02
2019-05-21T00:37:47.098Z,1070.93
2019-05-21T00:38:47.111Z,1071
2019-05-21T00:39:47.137Z,1070.75
2019-05-21T00:40:47.123Z,1070.72
2019-05-21T00:41:47.124Z,1070.54
2019-05-21T00:42:47.132Z,1070.77
2019-05-21T00:43:47.171Z,1070.63
2019-05-21T00:44:47.113Z,1070.61
2019-05-21T00:45:47.133Z,1070.59
2019-05-21T00:46:47.138Z,1070.36
2019-05-21T00:47:47.109Z,1070.28
2019-05-21T00:48:47.108Z,1070.29
2019-05-21T00:49:47.181Z,1070.09
2019-05-21T00:50:47.130Z,1069.93
2019-05-21T00:51:47.169Z,1069.98
2019-05-21T00:52:47.140Z,1069.65
2019-05-21T00:53:47.135Z,1069.87
2019-05-21T00:54:47.139Z,1069.99
2019-05-21T00:55:49.615Z,1070.12
2019-05-21T00:56:47.153Z,1069.91
2019-05-21T00:57:47.150Z,1069.93
2019-05-21T00:58:47.160Z,1069.84
2019-05-21T00:59:47.160Z,1069.97
2019-05-21T01:00:47.129Z,1069.96
2019-05-21T01:01:47.139Z,1069.85
2019-05-21T01:02:47.160Z,1069.72
2019-05-21T01:03:47.158Z,1069.75
2019-05-21T01:04:59.428Z,1069.57
2019-05-21T01:05:47.162Z,1069.81
2019-05-21T01:06:47.167Z,1069.63
2019-05-21T01:07:47.141Z,1069.72
2019-05-21T01:08:47.146Z,1069.81
2019-05-21T01:09:47.151Z,1069.77
2019-05-21T01:10:47.157Z,1069.7
2019-05-21T01:11:47.208Z,1069.48
2019-05-21T01:12:47.197Z,1069.48
2019-05-21T01:13:47.166Z,1069.3
2019-05-21T01:14:47.179Z,1069.4
2019-05-21T01:15:47.181Z,1069.41
2019-05-21T01:16:47.151Z,1069.31
2019-05-21T01:17:49.131Z,1069
2019-05-21T01:18:47.181Z,1069.29
2019-05-21T01:19:47.185Z,1069.24
2019-05-21T01:20:47.184Z,1069.36
2019-05-21T01:21:47.186Z,1069.25
2019-05-21T01:22:47.165Z,1069.19
2019-05-21T01:23:47.196Z,1069.21
2019-05-21T01:24:47.182Z,1068.98
2019-05-21T01:25:47.185Z,1068.91
2019-05-21T01:26:47.196Z,1068.71
2019-05-21T01:27:47.201Z,1068.65
2019-05-21T01:28:47.208Z,1068.44
2019-05-21T01:29:47.216Z,1068.53
2019-05-21T01:30:47.180Z,1068.48
2019-05-21T01:31:47.184Z,1068.24
2019-05-21T01:32:47.235Z,1068.21
2019-05-21T01:33:47.205Z,1068.05
2019-05-21T01:34:47.191Z,1067.74
2019-05-21T01:35:47.195Z,1067.73
2019-05-21T01:36:47.305Z,1067.65
2019-05-21T01:37:47.211Z,1067.52
2019-05-21T01:38:47.539Z,1067.33
2019-05-21T01:39:47.217Z,1067.12
2019-05-21T01:40:47.225Z,1067.02
2019-05-21T01:41:47.192Z,1066.6
2019-05-21T01:42:47.200Z,1066.63
2019-05-21T01:43:48.054Z,1066.61
2019-05-21T01:44:48.673Z,1066.42
2019-05-21T01:50:04.039Z,1066.37
2019-05-21T01:50:15.372Z,1065.43
2019-05-21T01:51:15.379Z,1065.54
2019-05-21T01:52:15.367Z,1065.46
2019-05-21T01:53:15.385Z,1065.15
2019-05-21T01:54:15.371Z,1065.19
2019-05-21T01:55:15.388Z,1065.19
2019-05-21T01:56:15.386Z,1065.03
2019-05-21T01:57:15.373Z,1064.77
2019-05-21T01:58:15.374Z,1064.74
2019-05-21T01:59:15.389Z,1064.69
2019-05-21T02:00:15.390Z,1064.42
2019-05-21T02:01:15.400Z,1064.44
2019-05-21T02:02:15.431Z,1064.53
2019-05-21T02:03:15.389Z,1064.25
2019-05-21T02:04:15.398Z,1064.39
2019-05-21T02:05:15.389Z,1064.32
2019-05-21T02:06:15.375Z,1063.97
2019-05-21T02:07:15.397Z,1064.52
2019-05-21T02:08:15.382Z,1064.55
2019-05-21T02:09:15.411Z,1064.38
2019-05-21T02:10:15.459Z,1064.13
2019-05-21T02:11:15.403Z,1064.22
2019-05-21T02:12:15.390Z,1064.12
2019-05-21T02:13:15.397Z,1064.04
2019-05-21T02:14:15.688Z,1063.9
2019-05-21T02:15:15.405Z,1063.88
2019-05-21T02:16:15.393Z,1063.87
2019-05-21T02:17:15.426Z,1063.72
2019-05-21T02:18:15.406Z,1063.71
2019-05-21T02:19:15.701Z,1063.29
2019-05-21T02:20:15.443Z,1063.47
2019-05-21T02:21:15.422Z,1063.43
2019-05-21T02:22:15.433Z,1063.36
2019-05-21T02:23:15.436Z,1063.2
2019-05-21T02:24:15.405Z,1063.24
2019-05-21T02:25:15.421Z,1063.06
2019-05-21T02:26:15.416Z,1062.74
2019-05-21T02:27:15.446Z,1062.47
2019-05-21T02:28:15.448Z,1062.18
2019-05-21T02:29:15.439Z,1062.38
2019-05-21T02:30:15.431Z,1061.95
2019-05-21T02:31:15.433Z,1062.14
2019-05-21T02:32:15.416Z,1062
2019-05-21T02:33:15.443Z,1062.05
2019-05-21T02:34:15.430Z,1061.99
2019-05-21T02:35:15.437Z,1061.91
2019-05-21T02:36:15.447Z,1061.64
2019-05-21T02:37:15.447Z,1061.91
2019-05-21T02:38:15.454Z,1061.68
2019-05-21T02:39:15.437Z,1061.64
2019-05-21T02:40:15.432Z,1061.49
2019-05-21T02:41:15.451Z,1061.41
2019-05-21T02:42:15.466Z,1061.41
2019-05-21T02:43:15.483Z,1061.38
2019-05-21T02:44:15.440Z,1061.34
2019-05-21T02:45:15.467Z,1061.6
2019-05-21T02:46:15.464Z,1061.44
2019-05-21T02:47:15.443Z,1061.48
2019-05-21T02:48:15.454Z,1061.42
2019-05-21T02:49:15.459Z,1061.31
2019-05-21T02:50:15.471Z,1060.99
2019-05-21T02:51:15.469Z,1061.11
2019-05-21T02:52:15.474Z,1061.09
2019-05-21T02:53:15.482Z,1060.86
2019-05-21T02:54:15.466Z,1060.87
2019-05-21T02:55:15.498Z,1060.87
2019-05-21T02:56:15.580Z,1060.66
2019-05-21T02:57:15.487Z,1060.46
2019-05-21T02:58:15.474Z,1060.1
2019-05-21T02:59:15.470Z,1059.93
2019-05-21T03:00:15.465Z,1059.88
2019-05-21T03:01:17.624Z,1059.73
2019-05-21T03:02:15.486Z,1059.63
2019-05-21T03:03:15.468Z,1059.32
2019-05-21T03:04:15.499Z,1059.29
2019-05-21T03:05:15.502Z,1059.08
2019-05-21T03:06:15.520Z,1058.92
2019-05-21T03:07:15.499Z,1058.85
2019-05-21T03:08:15.487Z,1058.56
2019-05-21T03:09:15.482Z,1058.66
2019-05-21T03:13:43.307Z,1058.36
2019-05-21T03:14:34.499Z,1058.43
2019-05-21T03:15:34.507Z,1058.13
2019-05-21T03:16:34.474Z,1058.15
2019-05-21T03:17:34.502Z,1058.02
2019-05-21T03:18:34.503Z,1057.88
2019-05-21T03:19:34.497Z,1057.58
2019-05-21T03:20:34.500Z,1057.33
2019-05-21T03:21:34.483Z,1057.41
2019-05-21T03:22:34.508Z,1057.08
2019-05-21T03:23:34.496Z,1057.01
2019-05-21T03:24:34.505Z,1057.03
2019-05-21T03:25:34.529Z,1056.87
2019-05-21T03:26:34.497Z,1056.4
2019-05-21T03:27:34.503Z,1056.1
2019-05-21T03:28:34.490Z,1056.09
2019-05-21T03:29:34.523Z,1055.69
2019-05-21T03:30:34.518Z,1055.77
2019-05-21T03:31:34.547Z,1055.6
2019-05-21T03:32:34.497Z,1055.4
2019-05-21T03:33:34.545Z,1055.13
2019-05-21T03:34:34.512Z,1055.23
2019-05-21T03:35:34.536Z,1055.18
2019-05-21T03:36:34.790Z,1054.95
2019-05-21T03:37:34.535Z,1054.98
2019-05-21T03:38:34.534Z,1054.89
2019-05-21T03:39:34.545Z,1054.75
2019-05-21T03:40:34.548Z,1054.72
2019-05-21T03:41:34.540Z,1054.62
2019-05-21T03:42:34.521Z,1054.69
2019-05-21T03:43:34.567Z,1054.66
2019-05-21T03:44:34.557Z,1054.48
2019-05-21T03:45:34.551Z,1054.3
2019-05-21T03:46:34.522Z,1054.29
2019-05-21T03:47:34.525Z,1053.97
2019-05-21T03:48:34.797Z,1054.34
2019-05-21T03:49:34.580Z,1054.16
2019-05-21T03:50:34.527Z,1054.15
2019-05-21T03:51:34.551Z,1054.27
2019-05-21T03:52:34.542Z,1054.19
2019-05-21T03:53:34.574Z,1054.16
2019-05-21T03:54:34.573Z,1054.3
2019-05-21T03:55:34.535Z,1054.23
2019-05-21T03:56:34.568Z,1054.26
2019-05-21T03:57:34.555Z,1054.1
2019-05-21T03:58:34.562Z,1053.82
2019-05-21T03:59:34.586Z,1053.71
2019-05-21T04:00:34.550Z,1053.47
2019-05-21T04:01:34.587Z,1053.46
2019-05-21T04:02:34.564Z,1053.31
2019-05-21T04:03:34.571Z,1053.29
2019-05-21T04:04:34.606Z,1053.14
2019-05-21T04:05:34.587Z,1053.18
2019-05-21T04:06:50.498Z,1052.97
2019-05-21T04:07:34.558Z,1052.73
2019-05-21T04:08:34.588Z,1052.97
2019-05-21T04:09:34.628Z,1053.14
2019-05-21T04:10:34.574Z,1053.11
2019-05-21T04:11:34.588Z,1052.99
2019-05-21T04:13:49.879Z,1052.73
2019-05-21T04:14:49.874Z,1053.16
2019-05-21T04:15:49.883Z,1053.27
2019-05-21T04:16:49.891Z,1052.9
2019-05-21T04:17:49.870Z,1052.93
2019-05-21T04:18:49.846Z,1052.88
2019-05-21T04:19:50.191Z,1052.56
2019-05-21T04:20:49.901Z,1052.85
2019-05-21T04:21:49.845Z,1052.65
2019-05-21T04:22:49.872Z,1052.6
2019-05-21T04:23:49.857Z,1052.78
2019-05-21T04:24:50.149Z,1052.49
2019-05-21T04:25:49.889Z,1052.99
2019-05-21T04:26:49.858Z,1053.01
2019-05-21T04:27:49.888Z,1052.96
2019-05-21T04:28:49.888Z,1052.94
2019-05-21T04:29:49.875Z,1053.29
2019-05-21T04:30:49.889Z,1053.07
2019-05-21T04:31:49.867Z,1053.17
2019-05-21T04:32:49.881Z,1053.34
2019-05-21T04:33:49.900Z,1053.35
2019-05-21T04:34:49.891Z,1053.45
2019-05-21T04:35:50.698Z,1053.46
2019-05-21T04:36:50.530Z,1053.67
2019-05-21T04:37:50.569Z,1053.83
2019-05-21T04:38:49.903Z,1053.93
2019-05-21T04:39:49.904Z,1054.07
2019-05-21T04:40:49.910Z,1053.88
2019-05-21T04:41:49.900Z,1054.08
2019-05-21T04:42:49.933Z,1053.89
2019-05-21T04:43:51.405Z,1053.99
2019-05-21T04:44:49.888Z,1054.2
2019-05-21T04:45:49.919Z,1053.92
2019-05-21T04:46:49.906Z,1054.12
2019-05-21T04:47:49.904Z,1054.05
2019-05-21T04:48:49.900Z,1054.6
2019-05-21T04:49:49.920Z,1054.83
2019-05-21T04:50:49.924Z,1054.85
2019-05-21T04:51:49.910Z,1054.82
2019-05-21T04:52:49.936Z,1054.78
2019-05-21T04:53:49.906Z,1054.73
2019-05-21T04:54:49.910Z,1055
2019-05-21T04:55:49.935Z,1055.18
2019-05-21T04:56:49.946Z,1055.39
2019-05-21T04:57:49.910Z,1055.39
2019-05-21T04:58:49.918Z,1055.31
2019-05-21T04:59:49.923Z,1055.61
2019-05-21T05:00:49.942Z,1055.64
2019-05-21T05:01:49.916Z,1055.53
2019-05-21T05:02:49.942Z,1055.64
2019-05-21T05:03:49.951Z,1056.08
2019-05-21T05:04:49.939Z,1056.02
2019-05-21T05:05:49.923Z,1055.98
2019-05-21T05:06:49.929Z,1055.73
2019-05-21T05:07:49.957Z,1056.32
2019-05-21T05:08:49.960Z,1056.48
2019-05-21T05:09:49.946Z,1056.69
2019-05-21T05:10:49.954Z,1056.73
2019-05-21T05:11:49.947Z,1057.02
2019-05-21T05:12:49.969Z,1057.2
2019-05-21T05:13:53.377Z,1057.34
2019-05-21T05:14:49.963Z,1057.51
2019-05-21T05:15:49.953Z,1057.61
2019-05-21T05:16:49.978Z,1057.36
2019-05-21T05:17:50.079Z,1057.66
2019-05-21T05:18:49.967Z,1057.78
2019-05-21T05:19:49.953Z,1058.16
2019-05-21T05:20:49.976Z,1058.16
2019-05-21T05:21:49.951Z,1058.18
2019-05-21T05:22:49.973Z,1058.34
2019-05-21T05:23:49.979Z,1058.58
2019-05-21T05:24:49.967Z,1058.53
2019-05-21T05:25:49.976Z,1058.44
2019-05-21T05:26:49.982Z,1058.74
2019-05-21T05:27:49.983Z,1058.8
2019-05-21T05:28:49.987Z,1058.96
2019-05-21T05:29:50.001Z,1059.08
2019-05-21T05:30:50.089Z,1059.16
2019-05-21T05:31:49.996Z,1059.58
2019-05-21T05:32:49.972Z,1059.85
2019-05-21T05:33:49.966Z,1060.22
2019-05-21T05:34:49.992Z,1060.47
2019-05-21T05:35:49.998Z,1060.81
2019-05-21T05:36:50.021Z,1061.15
2019-05-21T05:37:50.005Z,1061.49
2019-05-21T05:38:49.981Z,1061.87
2019-05-21T05:39:50.012Z,1062.26
2019-05-21T05:40:49.984Z,1063.06
2019-05-21T05:41:50.000Z,1063.12
2019-05-21T05:42:50.006Z,1063.32
2019-05-21T05:43:59.456Z,1063.15
2019-05-21T05:44:50.010Z,1063.01
2019-05-21T05:45:50.003Z,1063.19
2019-05-21T05:46:49.988Z,1063.53
2019-05-21T05:47:50.023Z,1063.46
2019-05-21T05:48:50.007Z,1063.66
2019-05-21T05:49:50.013Z,1063.85
2019-05-21T05:50:50.031Z,1063.7
2019-05-21T05:51:50.031Z,1063.67
2019-05-21T05:52:49.998Z,1063.83
2019-05-21T05:53:50.018Z,1063.79
2019-05-21T05:54:50.005Z,1063.87
2019-05-21T05:55:50.033Z,1063.74
2019-05-21T05:56:50.037Z,1063.92
2019-05-21T05:57:50.027Z,1063.75
2019-05-21T05:58:50.010Z,1063.91
2019-05-21T05:59:50.016Z,1064.04
2019-05-21T06:00:50.007Z,1064.18
2019-05-21T06:01:50.008Z,1064.28
2019-05-21T06:02:50.015Z,1064.23
2019-05-21T06:03:50.042Z,1064.14
2019-05-21T06:04:50.047Z,1064.56
2019-05-21T06:05:50.040Z,1064.82
2019-05-21T06:06:50.046Z,1064.99
2019-05-21T06:07:59.075Z,1064.84
2019-05-21T06:08:50.033Z,1065.1
2019-05-21T06:09:50.045Z,1064.77
2019-05-21T06:10:50.048Z,1064.81
2019-05-21T06:11:50.046Z,1064.94
2019-05-21T06:12:50.063Z,1065.3
2019-05-21T06:13:57.981Z,1065.61
2019-05-21T06:14:50.032Z,1065.76
2019-05-21T06:15:50.066Z,1065.91
2019-05-21T06:16:50.094Z,1066.45
2019-05-21T06:17:50.073Z,1066.54
2019-05-21T06:18:50.341Z,1067.29
2019-05-21T06:19:50.048Z,1067.62
2019-05-21T06:20:50.090Z,1068.19
2019-05-21T06:21:50.061Z,1068.51
2019-05-21T06:22:50.046Z,1068.64
2019-05-21T06:23:50.083Z,1068.73
2019-05-21T06:24:50.406Z,1069.14
2019-05-21T06:25:50.088Z,1069.35
2019-05-21T06:26:50.071Z,1069.75
2019-05-21T06:27:50.076Z,1070.29
2019-05-21T06:28:50.065Z,1070.66
2019-05-21T06:29:50.052Z,1071.42
2019-05-21T06:30:50.081Z,1071.85
2019-05-21T06:31:50.086Z,1072.31
2019-05-21T06:32:50.093Z,1072.62
2019-05-21T06:33:50.099Z,1073.04
2019-05-21T06:34:50.068Z,1073.22
2019-05-21T06:35:50.066Z,1073.4
2019-05-21T06:36:50.094Z,1073.71
2019-05-21T06:37:50.090Z,1073.78
2019-05-21T06:38:50.106Z,1073.71
2019-05-21T06:39:50.100Z,1073.7
2019-05-21T06:40:50.109Z,1073.79
2019-05-21T06:41:50.136Z,1073.53
2019-05-21T06:42:50.096Z,1074.06
2019-05-21T06:43:50.099Z,1074.33
2019-05-21T06:44:50.132Z,1074.21
2019-05-21T06:45:50.092Z,1074.31
2019-05-21T06:46:50.163Z,1073.87
2019-05-21T06:47:50.089Z,1073.79
2019-05-21T06:48:50.097Z,1073.4
2019-05-21T06:49:50.100Z,1073.09
2019-05-21T06:50:50.117Z,1073.12
2019-05-21T06:51:50.096Z,1073.28
2019-05-21T06:52:50.146Z,1073.68
2019-05-21T06:53:50.442Z,1073.88
2019-05-21T06:54:50.096Z,1073.94
2019-05-21T06:55:50.101Z,1073.99
2019-05-21T06:56:50.126Z,1074.06
2019-05-21T06:57:50.115Z,1074.46
2019-05-21T06:58:50.121Z,1074.63
2019-05-21T06:59:50.107Z,1074.68
2019-05-21T07:00:50.319Z,1074.4
2019-05-21T07:01:50.121Z,1075.12
2019-05-21T07:02:50.143Z,1075.32
2019-05-21T07:03:50.112Z,1075.13
2019-05-21T07:04:50.189Z,1074.78
2019-05-21T07:05:58.597Z,1074.8
2019-05-21T07:10:27.936Z,1074.24
2019-05-21T07:11:27.878Z,1074.52
2019-05-21T07:12:27.867Z,1074.4
2019-05-21T07:13:30.995Z,1074.05
2019-05-21T07:14:27.865Z,1073.82
2019-05-21T07:15:27.894Z,1073.36
2019-05-21T07:16:27.886Z,1073.2
2019-05-21T07:17:27.883Z,1073.13
2019-05-21T07:18:27.876Z,1073.37
2019-05-21T07:19:27.884Z,1073.68
2019-05-21T07:20:27.887Z,1073.37
2019-05-21T07:21:27.872Z,1073.41
2019-05-21T07:22:27.885Z,1073.28
2019-05-21T07:23:27.903Z,1073.49
2019-05-21T07:24:28.356Z,1073.76
2019-05-21T07:25:27.900Z,1074
2019-05-21T07:26:27.904Z,1074.02
2019-05-21T07:27:27.896Z,1074.3
2019-05-21T07:28:27.881Z,1074.74
2019-05-21T07:29:27.885Z,1075.2
2019-05-21T07:30:27.917Z,1075.35
2019-05-21T07:31:27.915Z,1075.62
2019-05-21T07:32:27.905Z,1075.65
2019-05-21T07:33:27.909Z,1075.8
2019-05-21T07:34:27.899Z,1075.72
2019-05-21T07:35:27.924Z,1075.73
2019-05-21T07:36:27.906Z,1075.47
2019-05-21T07:40:55.567Z,1075.87
2019-05-21T07:41:55.575Z,1075.73
2019-05-21T07:42:55.576Z,1075.83
2019-05-21T07:43:55.608Z,1075.8
2019-05-21T07:44:55.706Z,1075.73
2019-05-21T07:45:55.587Z,1075.66
2019-05-21T07:46:55.574Z,1075.48
2019-05-21T07:47:55.580Z,1075.61
2019-05-21T07:48:55.637Z,1075.94
2019-05-21T07:49:55.582Z,1076.36
2019-05-21T07:50:55.570Z,1076.51
2019-05-21T07:51:55.568Z,1076.88
2019-05-21T07:56:23.876Z,1076.24
2019-05-21T07:57:23.883Z,1076.31
2019-05-21T07:58:23.877Z,1076.14
2019-05-21T07:59:23.886Z,1075.89
2019-05-21T08:00:23.865Z,1075.45
2019-05-21T08:01:23.890Z,1075.18
2019-05-21T08:02:23.865Z,1074.76
2019-05-21T08:03:23.863Z,1074.59
2019-05-21T08:04:23.867Z,1074.57
2019-05-21T08:05:23.885Z,1074.61
2019-05-21T08:06:23.869Z,1074.48
2019-05-21T08:07:23.999Z,1074.6
2019-05-21T08:08:23.882Z,1074.44
2019-05-21T08:09:23.879Z,1074.61
2019-05-21T08:10:23.890Z,1074.8
2019-05-21T08:11:23.898Z,1075.07
2019-05-21T08:12:37.752Z,1075.15
2019-05-21T08:13:23.866Z,1075.6
2019-05-21T08:14:23.875Z,1075.76
2019-05-21T08:15:23.878Z,1076
2019-05-21T08:16:23.884Z,1076.04
2019-05-21T08:17:25.284Z,1075.98
2019-05-21T08:18:23.914Z,1076.1
2019-05-21T08:19:23.885Z,1075.99
2019-05-21T08:20:23.887Z,1076.08
2019-05-21T08:21:23.879Z,1076.13
2019-05-21T08:22:23.908Z,1076.54
2019-05-21T08:23:23.915Z,1076.68
2019-05-21T08:24:23.921Z,1076.99
2019-05-21T08:25:23.881Z,1077.17
2019-05-21T08:26:23.913Z,1077.62
2019-05-21T08:27:23.896Z,1077.48
2019-05-21T08:28:24.068Z,1077.71
2019-05-21T08:29:23.931Z,1077.8
2019-05-21T08:33:51.928Z,1078.99
2019-05-21T08:34:51.922Z,1079.01
2019-05-21T08:35:51.949Z,1079.06
2019-05-21T08:36:51.937Z,1079.63
2019-05-21T08:37:51.939Z,1079.81
2019-05-21T08:38:51.924Z,1080.54
2019-05-21T08:39:51.972Z,1080.71
2019-05-21T08:40:51.935Z,1081.05
2019-05-21T08:41:51.971Z,1081.24
2019-05-21T08:42:51.950Z,1081.41
2019-05-21T08:43:51.951Z,1081.53
2019-05-21T08:44:51.973Z,1081.43
2019-05-21T08:45:51.940Z,1081.46
2019-05-21T08:46:51.941Z,1081.57
2019-05-21T08:47:51.963Z,1081.83
2019-05-21T08:48:51.955Z,1082.14
2019-05-21T08:49:51.962Z,1082.15
2019-05-21T08:50:51.985Z,1082.59
2019-05-21T08:51:51.976Z,1082.56
2019-05-21T08:52:51.965Z,1082.81
2019-05-21T08:53:51.945Z,1082.97
2019-05-21T08:54:55.730Z,1083.25
2019-05-21T08:55:51.976Z,1083.4
2019-05-21T08:56:51.948Z,1083.73
2019-05-21T08:58:06.062Z,1084.26
2019-05-21T08:58:51.957Z,1084.26
2019-05-21T08:59:51.967Z,1084.39
2019-05-21T09:00:52.081Z,1084.39
2019-05-21T09:01:52.017Z,1084.33
2019-05-21T09:02:51.962Z,1084.16
2019-05-21T09:03:51.970Z,1084.17
2019-05-21T09:04:52.001Z,1084.39
2019-05-21T09:05:51.966Z,1084.6
2019-05-21T09:06:51.970Z,1085.05
2019-05-21T09:07:53.541Z,1085.33
2019-05-21T09:09:21.465Z,1085.53
2019-05-21T09:10:21.396Z,1085.47
2019-05-21T09:11:21.433Z,1085.16
2019-05-21T09:12:21.431Z,1084.92
2019-05-21T09:13:21.433Z,1084.89
2019-05-21T09:14:21.485Z,1085.03
2019-05-21T09:15:21.416Z,1085.08
2019-05-21T09:16:21.493Z,1085.11
2019-05-21T09:17:22.126Z,1085.31
2019-05-21T09:18:21.434Z,1085.43
2019-05-21T09:19:21.461Z,1085.66
2019-05-21T09:20:21.432Z,1085.94
2019-05-21T09:21:21.457Z,1086.02
2019-05-21T09:22:21.451Z,1086.32
2019-05-21T09:23:21.471Z,1086.48
2019-05-21T09:24:21.443Z,1086.36
2019-05-21T09:25:21.429Z,1086.55
2019-05-21T09:26:21.432Z,1086.86
2019-05-21T09:27:21.437Z,1087.11
2019-05-21T09:28:21.454Z,1087.5
2019-05-21T09:29:21.528Z,1087.6
2019-05-21T09:30:21.480Z,1088.07
2019-05-21T09:31:21.447Z,1088.06
2019-05-21T09:32:21.494Z,1088.63
2019-05-21T09:33:21.459Z,1088.66
2019-05-21T09:34:22.345Z,1089.32
2019-05-21T09:35:21.943Z,1089.62
2019-05-21T09:36:25.130Z,1089.8
2019-05-21T09:37:21.485Z,1089.75
2019-05-21T09:38:23.268Z,1089.97
2019-05-21T09:39:21.660Z,1090.09
2019-05-21T09:40:21.479Z,1090.36
2019-05-21T09:41:21.470Z,1090.68
2019-05-21T09:42:21.451Z,1090.71
2019-05-21T09:43:21.464Z,1090.86
2019-05-21T09:44:23.257Z,1091.15
2019-05-21T09:45:21.505Z,1091.39
2019-05-21T09:46:21.497Z,1091.65
2019-05-21T09:47:21.495Z,1091.54
2019-05-21T09:48:21.500Z,1091.76
2019-05-21T09:49:21.499Z,1091.89
2019-05-21T09:50:21.473Z,1092.03
2019-05-21T09:51:21.504Z,1092.1
2019-05-21T09:52:21.472Z,1092.18
2019-05-21T09:53:21.502Z,1092.18
2019-05-21T09:54:21.484Z,1092.23
2019-05-21T09:55:21.497Z,1092.17
2019-05-21T09:56:21.511Z,1091.97
2019-05-21T09:57:21.496Z,1091.89
2019-05-21T09:58:21.498Z,1091.98
2019-05-21T09:59:21.509Z,1091.75
2019-05-21T10:00:21.515Z,1091.61
2019-05-21T10:01:21.503Z,1091.61
2019-05-21T10:02:21.530Z,1091.89
2019-05-21T10:03:21.538Z,1092.36
2019-05-21T10:04:21.509Z,1092.66
2019-05-21T10:05:21.532Z,1092.78
2019-05-21T10:06:21.515Z,1093.31
2019-05-21T10:07:37.923Z,1093.73
2019-05-21T10:08:21.490Z,1093.8
2019-05-21T10:09:21.539Z,1094.18
2019-05-21T10:10:21.526Z,1094.49
2019-05-21T10:11:21.574Z,1094.65
2019-05-21T10:12:21.599Z,1095.21
2019-05-21T10:13:21.529Z,1095.78
2019-05-21T10:14:24.635Z,1096.17
2019-05-21T10:15:21.525Z,1097.23
2019-05-21T10:16:21.609Z,1097.96
2019-05-21T10:17:21.554Z,1098.77
2019-05-21T10:18:21.521Z,1099.32
2019-05-21T10:19:21.510Z,1099.51
2019-05-21T10:20:21.554Z,1099.73
2019-05-21T10:21:21.638Z,1099.89
2019-05-21T10:22:21.537Z,1100.14
2019-05-21T10:23:21.542Z,1100.46
2019-05-21T10:24:21.555Z,1100.9
2019-05-21T10:25:21.524Z,1101.16
2019-05-21T10:26:21.530Z,1101.35
2019-05-21T10:27:21.580Z,1101.46
2019-05-21T10:28:21.545Z,1101.07
2019-05-21T10:29:21.549Z,1100.99
2019-05-21T10:30:21.578Z,1100.81
2019-05-21T10:31:21.593Z,1100.72
2019-05-21T10:32:21.555Z,1100.77
2019-05-21T10:33:21.558Z,1100.93
2019-05-21T10:34:37.337Z,1101.19
2019-05-21T10:35:37.337Z,1101.19
2019-05-21T10:36:37.370Z,1101
2019-05-21T10:37:37.319Z,1100.93
2019-05-21T10:38:37.366Z,1100.9
2019-05-21T10:39:37.336Z,1100.89
2019-05-21T10:40:37.375Z,1100.76
2019-05-21T10:41:37.351Z,1100.81
2019-05-21T10:42:37.458Z,1100.9
2019-05-21T10:43:37.350Z,1101.12
2019-05-21T10:44:37.853Z,1101.6
2019-05-21T10:45:37.347Z,1101.82
2019-05-21T10:46:37.318Z,1102.25
2019-05-21T10:47:37.354Z,1102.63
2019-05-21T10:48:37.351Z,1103.04
2019-05-21T10:49:37.361Z,1103.61
2019-05-21T10:50:37.357Z,1104.23
2019-05-21T10:51:37.350Z,1104.63
2019-05-21T10:52:37.356Z,1105.03
2019-05-21T10:53:37.356Z,1105.24
2019-05-21T10:54:37.711Z,1105.49
2019-05-21T10:55:37.431Z,1105.71
2019-05-21T10:56:47.100Z,1105.88
2019-05-21T10:57:37.347Z,1105.82
2019-05-21T10:58:37.369Z,1106.11
2019-05-21T10:59:37.354Z,1106.25
2019-05-21T11:00:37.426Z,1106.56
2019-05-21T11:01:37.352Z,1106.81
2019-05-21T11:02:37.354Z,1106.99
2019-05-21T11:03:37.468Z,1107.12
2019-05-21T11:04:37.349Z,1107.54
2019-05-21T11:05:37.518Z,1107.78
2019-05-21T11:06:37.362Z,1108.01
2019-05-21T11:07:37.346Z,1108.12
2019-05-21T11:08:37.381Z,1108.3
2019-05-21T11:09:37.469Z,1108.16
2019-05-21T11:10:37.429Z,1108.12
2019-05-21T11:11:37.413Z,1108.14
2019-05-21T11:12:37.389Z,1108.15
2019-05-21T11:13:37.441Z,1108.38
2019-05-21T11:14:38.773Z,1108.69
2019-05-21T11:15:37.402Z,1108.89
2019-05-21T11:16:37.395Z,1109.17
2019-05-21T11:17:49.902Z,1109.69
2019-05-21T11:18:37.694Z,1110.04
2019-05-21T11:19:37.405Z,1110.48
2019-05-21T11:20:37.444Z,1110.86
2019-05-21T11:21:37.401Z,1111.09
2019-05-21T11:22:37.411Z,1111.42
2019-05-21T11:23:37.454Z,1111.37
2019-05-21T11:24:37.385Z,1111.41
2019-05-21T11:25:37.389Z,1111.59
2019-05-21T11:26:37.414Z,1111.54
2019-05-21T11:27:37.399Z,1111.66
2019-05-21T11:28:37.392Z,1111.72
2019-05-21T11:29:37.399Z,1111.85
2019-05-21T11:30:37.467Z,1112.2
2019-05-21T11:31:37.408Z,1112.46
2019-05-21T11:32:37.422Z,1112.52
2019-05-21T11:33:37.422Z,1112.64
2019-05-21T11:34:37.432Z,1112.67
2019-05-21T11:35:37.414Z,1112.84
2019-05-21T11:36:37.445Z,1113.04
2019-05-21T11:37:37.407Z,1113.14
2019-05-21T11:38:39.734Z,1113.24
2019-05-21T11:39:37.440Z,1113.61
2019-05-21T11:40:37.450Z,1113.95
2019-05-21T11:41:37.532Z,1114.38
2019-05-21T11:42:37.450Z,1115.05
2019-05-21T11:43:37.429Z,1115.64
2019-05-21T11:44:37.613Z,1116.17
2019-05-21T11:45:37.479Z,1116.46
2019-05-21T11:46:37.416Z,1116.91
2019-05-21T11:47:37.444Z,1117.16
2019-05-21T11:48:37.431Z,1117.45
2019-05-21T11:49:37.423Z,1117.65
2019-05-21T11:50:37.507Z,1117.88
2019-05-21T11:51:37.455Z,1117.96
2019-05-21T11:52:37.437Z,1118.09
2019-05-21T11:53:37.445Z,1118.26
2019-05-21T11:54:37.435Z,1118.34
2019-05-21T11:55:37.437Z,1118.44
2019-05-21T11:56:37.446Z,1118.64
2019-05-21T11:57:37.451Z,1118.79
2019-05-21T11:58:39.678Z,1118.84
2019-05-21T11:59:37.465Z,1118.97
2019-05-21T12:00:37.543Z,1119.1
2019-05-21T12:01:37.461Z,1119.13
2019-05-21T12:02:37.466Z,1119.13
2019-05-21T12:03:37.481Z,1119.15
2019-05-21T12:04:37.475Z,1119.17
2019-05-21T12:05:37.470Z,1119.19
2019-05-21T12:06:37.552Z,1119.17
2019-05-21T12:07:37.456Z,1119.15
2019-05-21T12:08:37.480Z,1119.19
2019-05-21T12:09:37.471Z,1119.19
2019-05-21T12:10:37.494Z,1119.18
2019-05-21T12:11:37.463Z,1119.19
2019-05-21T12:12:37.489Z,1119.18
2019-05-21T12:13:37.480Z,1119.12
2019-05-21T12:14:37.487Z,1119.13
2019-05-21T12:15:37.493Z,1119.12
2019-05-21T12:16:37.518Z,1119.12
2019-05-21T12:17:37.501Z,1119.16
2019-05-21T12:18:37.487Z,1119.09
2019-05-21T12:19:37.511Z,1119.02
2019-05-21T12:20:37.728Z,1118.85
2019-05-21T12:21:37.488Z,1118.84
2019-05-21T12:22:37.492Z,1118.71
2019-05-21T12:23:37.521Z,1118.59
2019-05-21T12:24:37.537Z,1118.44
2019-05-21T12:25:37.499Z,1118.33
2019-05-21T12:26:37.517Z,1118.21
2019-05-21T12:27:37.489Z,1118.06
2019-05-21T12:28:37.490Z,1117.83
2019-05-21T12:29:37.518Z,1117.75
2019-05-21T12:30:37.546Z,1117.42
2019-05-21T12:31:37.526Z,1117.28
2019-05-21T12:32:37.540Z,1116.99
2019-05-21T12:33:37.511Z,1116.84
2019-05-21T12:34:38.977Z,1116.62